createdAt,value
2022-08-23T00:00:13.847Z,4.05
2022-08-23T00:00:55.825Z,4.00
2022-08-23T00:01:40.251Z,4.55
2022-08-23T00:02:23.716Z,4.05
2022-08-23T00:03:05.965Z,3.60
2022-08-23T00:03:52.592Z,4.20
2022-08-23T00:04:38.818Z,4.93
2022-08-23T00:05:38.456Z,4.47
2022-08-23T00:06:22.040Z,4.50
2022-08-23T00:07:05.999Z,4.00
2022-08-23T00:07:47.708Z,4.18
2022-08-23T00:08:29.480Z,3.95
2022-08-23T00:09:11.902Z,4.05
2022-08-23T00:09:53.619Z,3.80
2022-08-23T00:10:35.342Z,4.53
2022-08-23T00:11:25.817Z,4.10
2022-08-23T00:12:26.539Z,3.90
2022-08-23T00:13:08.261Z,3.78
2022-08-23T00:13:49.989Z,4.30
2022-08-23T00:14:34.790Z,4.30
2022-08-23T00:15:20.216Z,4.50
2022-08-23T00:16:01.964Z,4.30
2022-08-23T00:16:45.724Z,4.03
2022-08-23T00:17:33.848Z,4.40
2022-08-23T00:18:17.017Z,5.07
2022-08-23T00:18:59.350Z,4.10
2022-08-23T00:19:42.176Z,3.90
2022-08-23T00:20:23.910Z,3.90
2022-08-23T00:21:05.700Z,4.60
2022-08-23T00:21:48.652Z,4.50
2022-08-23T00:22:30.371Z,4.70
2022-08-23T00:23:12.084Z,4.90
2022-08-23T00:23:53.791Z,4.70
2022-08-23T00:24:40.948Z,4.70
2022-08-23T00:25:22.840Z,4.90
2022-08-23T00:26:04.790Z,4.75
2022-08-23T00:26:59.202Z,4.50
2022-08-23T00:27:41.015Z,4.30
2022-08-23T00:28:22.703Z,5.32
2022-08-23T00:29:04.421Z,5.13
2022-08-23T00:29:51.209Z,4.60
2022-08-23T00:30:33.210Z,5.13
2022-08-23T00:31:18.157Z,4.70
2022-08-23T00:32:00.722Z,4.68
2022-08-23T00:32:43.790Z,4.32
2022-08-23T00:33:25.957Z,4.82
2022-08-23T00:34:07.701Z,5.30
2022-08-23T00:34:49.619Z,5.00
2022-08-23T00:35:31.345Z,4.40
2022-08-23T00:36:13.296Z,5.00
2022-08-23T00:36:55.072Z,4.53
2022-08-23T00:37:37.573Z,4.20
2022-08-23T00:38:34.442Z,3.95
2022-08-23T00:39:18.207Z,4.20
2022-08-23T00:40:01.001Z,4.35
2022-08-23T00:40:52.484Z,4.57
2022-08-23T00:41:34.834Z,4.50
2022-08-23T00:42:59.552Z,4.40
2022-08-23T00:44:01.004Z,4.70
2022-08-23T00:45:01.617Z,4.97
2022-08-23T00:46:20.059Z,5.03
2022-08-23T00:47:20.536Z,4.57
2022-08-23T00:48:05.145Z,4.05
2022-08-23T00:48:47.057Z,4.45
2022-08-23T00:49:31.117Z,4.63
2022-08-23T00:50:48.161Z,4.63
2022-08-23T00:52:08.779Z,4.80
2022-08-23T00:53:27.065Z,5.05
2022-08-23T00:54:11.105Z,4.55
2022-08-23T00:54:54.929Z,4.65
2022-08-23T00:55:38.311Z,5.07
2022-08-23T00:56:23.185Z,5.07
2022-08-23T00:57:10.786Z,4.72
2022-08-23T00:57:52.682Z,4.80
2022-08-23T00:58:34.502Z,4.72
2022-08-23T00:59:16.237Z,5.00
2022-08-23T00:59:58.198Z,4.72
2022-08-23T01:00:40.509Z,4.95
2022-08-23T01:01:22.467Z,5.10
2022-08-23T01:02:08.355Z,4.70
2022-08-23T01:02:52.131Z,4.88
2022-08-23T01:03:39.421Z,4.82
2022-08-23T01:04:27.319Z,4.65
2022-08-23T01:05:09.442Z,5.20
2022-08-23T01:06:14.195Z,4.80
2022-08-23T01:07:17.407Z,4.40
2022-08-23T01:08:00.106Z,4.40
2022-08-23T01:08:49.376Z,4.80
2022-08-23T01:09:31.169Z,4.50
2022-08-23T01:10:21.082Z,4.70
2022-08-23T01:11:08.660Z,4.45
2022-08-23T01:11:57.536Z,5.40
2022-08-23T01:12:44.640Z,4.60
2022-08-23T01:13:39.541Z,4.72
2022-08-23T01:14:29.838Z,5.03
2022-08-23T01:15:18.867Z,4.90
2022-08-23T01:16:40.133Z,4.75
2022-08-23T01:17:29.999Z,4.45
2022-08-23T01:18:14.968Z,4.90
2022-08-23T01:18:57.054Z,4.90
2022-08-23T01:19:43.990Z,4.80
2022-08-23T01:20:27.225Z,5.07
2022-08-23T01:21:19.740Z,4.80
2022-08-23T01:22:28.477Z,4.90
2022-08-23T01:23:36.932Z,4.75
2022-08-23T01:24:37.968Z,4.85
2022-08-23T01:25:23.093Z,4.10
2022-08-23T01:26:05.773Z,4.93
2022-08-23T01:26:48.028Z,5.10
2022-08-23T01:27:30.314Z,5.13
2022-08-23T01:28:14.412Z,5.03
2022-08-23T01:28:56.428Z,5.10
2022-08-23T01:29:39.502Z,4.47
2022-08-23T01:30:24.021Z,5.03
2022-08-23T01:31:06.702Z,5.10
2022-08-23T01:31:49.186Z,5.40
2022-08-23T01:32:32.365Z,5.40
2022-08-23T01:33:14.846Z,5.32
2022-08-23T01:34:03.709Z,4.60
2022-08-23T01:34:45.924Z,5.03
2022-08-23T01:35:46.625Z,5.15
2022-08-23T01:36:29.160Z,5.32
2022-08-23T01:37:11.158Z,5.10
2022-08-23T01:37:52.924Z,4.90
2022-08-23T01:38:34.936Z,4.65
2022-08-23T01:39:16.816Z,5.00
2022-08-23T01:39:58.689Z,5.15
2022-08-23T01:40:40.811Z,4.93
2022-08-23T01:41:23.765Z,4.65
2022-08-23T01:42:08.010Z,4.95
2022-08-23T01:42:49.762Z,5.25
2022-08-23T01:43:31.455Z,5.30
2022-08-23T01:44:14.086Z,4.90
2022-08-23T01:44:56.026Z,4.57
2022-08-23T01:45:39.739Z,4.68
2022-08-23T01:46:25.538Z,4.40
2022-08-23T01:47:07.766Z,4.53
2022-08-23T01:47:49.570Z,5.00
2022-08-23T01:48:31.289Z,5.30
2022-08-23T01:49:13.906Z,4.93
2022-08-23T01:49:55.710Z,4.70
2022-08-23T01:51:25.717Z,5.30
2022-08-23T01:52:07.408Z,5.50
2022-08-23T01:52:49.316Z,5.68
2022-08-23T01:53:31.133Z,5.50
2022-08-23T01:54:13.476Z,4.78
2022-08-23T01:54:57.165Z,5.05
2022-08-23T01:55:40.700Z,5.10
2022-08-23T01:56:28.095Z,5.10
2022-08-23T01:57:20.199Z,4.55
2022-08-23T01:58:03.877Z,5.20
2022-08-23T01:58:46.617Z,5.32
2022-08-23T01:59:28.435Z,5.18
2022-08-23T02:00:11.210Z,5.20
2022-08-23T02:00:55.498Z,5.20
2022-08-23T02:01:38.146Z,4.45
2022-08-23T02:02:19.883Z,4.35
2022-08-23T02:03:02.579Z,5.07
2022-08-23T02:03:44.691Z,5.60
2022-08-23T02:04:29.588Z,5.10
2022-08-23T02:05:11.354Z,5.20
2022-08-23T02:05:53.047Z,5.65
2022-08-23T02:06:34.985Z,5.10
2022-08-23T02:07:16.852Z,5.75
2022-08-23T02:08:19.137Z,5.90
2022-08-23T02:09:00.891Z,4.73
2022-08-23T02:09:45.233Z,5.47
2022-08-23T02:10:26.964Z,5.43
2022-08-23T02:11:11.557Z,5.32
2022-08-23T02:11:55.135Z,5.60
2022-08-23T02:12:37.566Z,5.25
2022-08-23T02:13:20.080Z,5.40
2022-08-23T02:14:07.023Z,5.25
2022-08-23T02:14:48.950Z,5.22
2022-08-23T02:15:31.987Z,5.03
2022-08-23T02:16:15.005Z,5.40
2022-08-23T02:17:03.870Z,6.10
2022-08-23T02:17:46.536Z,6.00
2022-08-23T02:18:29.465Z,5.90
2022-08-23T02:19:13.012Z,6.03
2022-08-23T02:19:55.767Z,5.03
2022-08-23T02:20:40.197Z,5.38
2022-08-23T02:21:22.318Z,5.90
2022-08-23T02:22:06.170Z,5.38
2022-08-23T02:22:47.848Z,5.25
2022-08-23T02:23:29.999Z,5.45
2022-08-23T02:24:24.004Z,5.60
2022-08-23T02:25:07.395Z,5.45
2022-08-23T02:25:51.720Z,5.38
2022-08-23T02:26:36.440Z,5.68
2022-08-23T02:27:18.377Z,5.95
2022-08-23T02:28:00.057Z,5.80
2022-08-23T02:28:41.770Z,5.93
2022-08-23T02:29:25.813Z,6.20
2022-08-23T02:30:08.082Z,5.50
2022-08-23T02:30:51.321Z,5.60
2022-08-23T02:31:34.686Z,6.28
2022-08-23T02:32:18.553Z,5.45
2022-08-23T02:33:00.429Z,5.20
2022-08-23T02:33:42.574Z,5.38
2022-08-23T02:34:26.093Z,5.55
2022-08-23T02:35:09.841Z,5.53
2022-08-23T02:35:51.710Z,6.03
2022-08-23T02:36:33.656Z,5.50
2022-08-23T02:37:15.778Z,5.63
2022-08-23T02:37:57.498Z,5.80
2022-08-23T02:38:39.679Z,5.68
2022-08-23T02:39:21.887Z,6.03
2022-08-23T02:40:05.801Z,5.20
2022-08-23T02:40:48.344Z,5.03
2022-08-23T02:41:36.187Z,5.47
2022-08-23T02:42:17.933Z,5.75
2022-08-23T02:43:02.653Z,5.50
2022-08-23T02:43:45.109Z,5.30
2022-08-23T02:44:27.031Z,5.13
2022-08-23T02:45:11.358Z,6.13
2022-08-23T02:45:53.160Z,5.65
2022-08-23T02:46:35.683Z,6.40
2022-08-23T02:47:18.090Z,6.40
2022-08-23T02:48:00.079Z,6.47
2022-08-23T02:48:42.785Z,5.78
2022-08-23T02:49:25.909Z,6.05
2022-08-23T02:50:08.895Z,5.82
2022-08-23T02:50:50.587Z,5.97
2022-08-23T02:51:32.672Z,6.15
2022-08-23T02:52:14.385Z,6.20
2022-08-23T02:52:58.087Z,5.30
2022-08-23T02:53:39.868Z,5.88
2022-08-23T02:54:21.655Z,6.60
2022-08-23T02:55:04.081Z,5.93
2022-08-23T02:55:47.452Z,6.22
2022-08-23T02:56:29.185Z,6.70
2022-08-23T02:57:11.162Z,6.13
2022-08-23T02:57:52.978Z,6.18
2022-08-23T02:58:34.716Z,5.82
2022-08-23T02:59:16.406Z,6.22
2022-08-23T02:59:58.119Z,6.40
2022-08-23T03:00:40.011Z,6.07
2022-08-23T03:01:25.200Z,6.30
2022-08-23T03:02:07.049Z,5.53
2022-08-23T03:02:48.896Z,6.15
2022-08-23T03:03:30.728Z,6.60
2022-08-23T03:04:16.233Z,6.10
2022-08-23T03:04:57.970Z,6.30
2022-08-23T03:05:39.775Z,5.40
2022-08-23T03:06:25.762Z,5.18
2022-08-23T03:07:07.803Z,5.80
2022-08-23T03:07:49.575Z,6.07
2022-08-23T03:08:31.254Z,6.13
2022-08-23T03:09:13.001Z,6.32
2022-08-23T03:09:54.741Z,6.03
2022-08-23T03:10:36.837Z,6.70
2022-08-23T03:11:21.691Z,6.38
2022-08-23T03:12:03.945Z,6.10
2022-08-23T03:12:45.682Z,6.18
2022-08-23T03:13:27.459Z,6.55
2022-08-23T03:14:09.407Z,5.85
2022-08-23T03:14:52.144Z,5.72
2022-08-23T03:15:34.503Z,5.20
2022-08-23T03:16:17.103Z,5.40
2022-08-23T03:16:59.047Z,5.35
2022-08-23T03:17:40.789Z,6.00
2022-08-23T03:18:22.495Z,5.70
2022-08-23T03:19:04.591Z,5.70
2022-08-23T03:19:46.331Z,6.25
2022-08-23T03:20:28.308Z,6.10
2022-08-23T03:21:10.522Z,6.07
2022-08-23T03:21:52.247Z,5.93
2022-08-23T03:22:34.394Z,5.70
2022-08-23T03:23:16.385Z,6.00
2022-08-23T03:23:58.156Z,5.80
2022-08-23T03:24:40.039Z,5.55
2022-08-23T03:25:22.511Z,6.10
2022-08-23T03:26:06.292Z,6.00
2022-08-23T03:26:48.098Z,6.35
2022-08-23T03:27:31.450Z,6.03
2022-08-23T03:28:20.305Z,5.80
2022-08-23T03:29:02.349Z,5.40
2022-08-23T03:29:44.086Z,5.43
2022-08-23T03:30:25.757Z,5.70
2022-08-23T03:31:08.609Z,6.05
2022-08-23T03:31:51.574Z,5.95
2022-08-23T03:32:35.726Z,6.50
2022-08-23T03:33:18.050Z,5.93
2022-08-23T03:33:59.748Z,5.30
2022-08-23T03:34:41.430Z,5.28
2022-08-23T03:35:23.327Z,6.57
2022-08-23T03:36:07.402Z,6.30
2022-08-23T03:36:49.363Z,6.28
2022-08-23T03:37:31.082Z,5.95
2022-08-23T03:38:13.986Z,5.60
2022-08-23T03:38:56.173Z,5.30
2022-08-23T03:39:37.981Z,5.80
2022-08-23T03:40:20.634Z,5.65
2022-08-23T03:41:02.619Z,6.05
2022-08-23T03:41:44.388Z,6.53
2022-08-23T03:42:30.837Z,6.50
2022-08-23T03:43:14.633Z,5.55
2022-08-23T03:43:56.438Z,5.82
2022-08-23T03:44:38.129Z,6.20
2022-08-23T03:45:20.245Z,5.82
2022-08-23T03:46:02.030Z,5.60
2022-08-23T03:46:43.926Z,5.70
2022-08-23T03:47:25.645Z,5.90
2022-08-23T03:48:07.387Z,5.37
2022-08-23T03:48:53.794Z,5.53
2022-08-23T03:49:35.571Z,6.03
2022-08-23T03:50:17.380Z,6.25
2022-08-23T03:50:59.548Z,6.20
2022-08-23T03:51:41.270Z,6.57
2022-08-23T03:52:22.990Z,6.30
2022-08-23T03:53:05.027Z,6.20
2022-08-23T03:53:47.832Z,6.63
2022-08-23T03:54:30.075Z,6.03
2022-08-23T03:55:11.752Z,5.90
2022-08-23T03:55:55.076Z,5.72
2022-08-23T03:56:40.107Z,6.20
2022-08-23T03:57:21.797Z,6.20
2022-08-23T03:58:03.580Z,5.93
2022-08-23T03:58:45.316Z,6.15
2022-08-23T03:59:28.319Z,5.97
2022-08-23T04:00:12.503Z,6.75
2022-08-23T04:00:54.252Z,6.32
2022-08-23T04:01:36.673Z,6.53
2022-08-23T04:02:18.469Z,5.57
2022-08-23T04:03:00.866Z,6.60
2022-08-23T04:03:43.524Z,6.85
2022-08-23T04:04:25.406Z,6.28
2022-08-23T04:05:10.965Z,6.40
2022-08-23T04:05:52.732Z,6.45
2022-08-23T04:06:34.507Z,6.25
2022-08-23T04:07:20.799Z,6.43
2022-08-23T04:08:09.301Z,6.18
2022-08-23T04:08:52.745Z,6.85
2022-08-23T04:09:34.430Z,5.93
2022-08-23T04:10:16.219Z,5.78
2022-08-23T04:10:57.951Z,6.38
2022-08-23T04:11:39.821Z,5.85
2022-08-23T04:12:22.781Z,5.82
2022-08-23T04:13:04.832Z,5.88
2022-08-23T04:13:47.187Z,5.93
2022-08-23T04:14:28.929Z,6.40
2022-08-23T04:15:11.867Z,6.15
2022-08-23T04:15:53.699Z,5.85
2022-08-23T04:16:37.806Z,6.13
2022-08-23T04:17:21.039Z,6.07
2022-08-23T04:18:03.062Z,6.75
2022-08-23T04:18:46.082Z,6.50
2022-08-23T04:19:27.971Z,6.45
2022-08-23T04:20:11.685Z,6.32
2022-08-23T04:20:53.502Z,5.93
2022-08-23T04:21:37.831Z,6.80
2022-08-23T04:22:20.002Z,6.50
2022-08-23T04:23:02.004Z,5.90
2022-08-23T04:23:43.807Z,6.85
2022-08-23T04:24:25.768Z,6.32
2022-08-23T04:25:33.006Z,6.00
2022-08-23T04:26:09.996Z,6.60
2022-08-23T04:26:51.715Z,6.43
2022-08-23T04:27:33.435Z,6.05
2022-08-23T04:28:15.174Z,6.38
2022-08-23T04:28:57.133Z,6.00
2022-08-23T04:29:39.971Z,6.25
2022-08-23T04:30:22.133Z,6.80
2022-08-23T04:31:05.784Z,6.93
2022-08-23T04:31:47.766Z,6.82
2022-08-23T04:32:30.716Z,6.77
2022-08-23T04:33:18.225Z,6.50
2022-08-23T04:34:00.884Z,6.55
2022-08-23T04:34:45.381Z,5.90
2022-08-23T04:35:27.454Z,6.00
2022-08-23T04:36:09.421Z,6.40
2022-08-23T04:36:51.825Z,6.80
2022-08-23T04:37:37.293Z,6.45
2022-08-23T04:38:24.957Z,6.57
2022-08-23T04:39:07.255Z,7.10
2022-08-23T04:40:07.621Z,6.82
2022-08-23T04:41:11.250Z,7.18
2022-08-23T04:42:14.871Z,6.95
2022-08-23T04:42:57.235Z,6.50
2022-08-23T04:43:40.091Z,6.22
2022-08-23T04:44:22.230Z,6.03
2022-08-23T04:45:04.280Z,7.10
2022-08-23T04:45:47.091Z,7.63
2022-08-23T04:46:28.943Z,7.20
2022-08-23T04:47:10.756Z,7.07
2022-08-23T04:47:52.684Z,6.55
2022-08-23T04:48:35.462Z,6.53
2022-08-23T04:49:17.943Z,7.00
2022-08-23T04:49:59.637Z,6.88
2022-08-23T04:50:41.577Z,6.43
2022-08-23T04:51:23.330Z,6.70
2022-08-23T04:52:05.127Z,6.70
2022-08-23T04:52:46.899Z,6.50
2022-08-23T04:53:34.951Z,6.93
2022-08-23T04:54:19.035Z,6.45
2022-08-23T04:55:04.657Z,6.53
2022-08-23T04:55:46.586Z,6.82
2022-08-23T04:56:28.458Z,7.13
2022-08-23T04:57:10.215Z,7.35
2022-08-23T04:57:52.246Z,7.03
2022-08-23T04:58:35.428Z,6.45
2022-08-23T04:59:17.186Z,6.80
2022-08-23T04:59:58.928Z,6.55
2022-08-23T05:00:40.676Z,6.88
2022-08-23T05:01:24.625Z,7.40
2022-08-23T05:02:06.411Z,7.50
2022-08-23T05:02:48.247Z,6.65
2022-08-23T05:03:30.100Z,7.53
2022-08-23T05:04:12.067Z,7.63
2022-08-23T05:04:54.017Z,8.07
2022-08-23T05:05:35.800Z,7.53
2022-08-23T05:06:17.552Z,7.35
2022-08-23T05:06:59.273Z,7.28
2022-08-23T05:07:42.523Z,6.83
2022-08-23T05:08:25.565Z,7.47
2022-08-23T05:09:07.483Z,7.50
2022-08-23T05:09:49.217Z,6.95
2022-08-23T05:10:31.049Z,7.20
2022-08-23T05:11:12.796Z,7.28
2022-08-23T05:11:54.563Z,7.88
2022-08-23T05:12:36.843Z,7.00
2022-08-23T05:13:18.676Z,7.00
2022-08-23T05:14:00.537Z,7.20
2022-08-23T05:14:47.802Z,7.40
2022-08-23T05:15:29.850Z,7.30
2022-08-23T05:16:12.055Z,7.20
2022-08-23T05:16:53.738Z,7.30
2022-08-23T05:17:36.173Z,7.32
2022-08-23T05:18:18.116Z,7.30
2022-08-23T05:18:59.880Z,6.88
2022-08-23T05:19:44.251Z,7.35
2022-08-23T05:20:28.974Z,7.25
2022-08-23T05:21:19.543Z,7.15
2022-08-23T05:22:01.310Z,6.80
2022-08-23T05:22:43.071Z,7.13
2022-08-23T05:23:31.871Z,7.53
2022-08-23T05:24:14.334Z,7.32
2022-08-23T05:24:56.002Z,7.00
2022-08-23T05:25:49.637Z,6.90
2022-08-23T05:26:34.213Z,6.60
2022-08-23T05:27:15.958Z,6.75
2022-08-23T05:27:57.643Z,7.15
2022-08-23T05:28:44.781Z,6.97
2022-08-23T05:29:26.495Z,7.10
2022-08-23T05:30:15.214Z,7.75
2022-08-23T05:31:06.807Z,7.25
2022-08-23T05:31:53.481Z,7.10
2022-08-23T05:32:35.183Z,7.10
2022-08-23T05:33:16.961Z,7.43
2022-08-23T05:33:59.338Z,6.97
2022-08-23T05:34:42.076Z,7.88
2022-08-23T05:35:23.761Z,7.40
2022-08-23T05:36:06.379Z,7.05
2022-08-23T05:36:55.141Z,7.22
2022-08-23T05:37:37.567Z,7.55
2022-08-23T05:38:20.939Z,7.03
2022-08-23T05:39:02.776Z,7.28
2022-08-23T05:39:44.538Z,6.70
2022-08-23T05:40:27.551Z,6.53
2022-08-23T05:41:10.199Z,6.75
2022-08-23T05:41:51.907Z,6.70
2022-08-23T05:42:33.703Z,7.18
2022-08-23T05:43:15.658Z,7.45
2022-08-23T05:43:57.391Z,7.32
2022-08-23T05:44:39.270Z,7.57
2022-08-23T05:45:21.224Z,7.60
2022-08-23T05:46:05.003Z,7.50
2022-08-23T05:46:47.579Z,7.45
2022-08-23T05:47:29.817Z,7.45
2022-08-23T05:48:18.294Z,8.25
2022-08-23T05:49:00.201Z,9.05
2022-08-23T05:49:42.514Z,8.32
2022-08-23T05:50:24.235Z,7.20
2022-08-23T05:51:17.035Z,7.70
2022-08-23T05:51:59.154Z,8.15
2022-08-23T05:52:41.451Z,8.00
2022-08-23T05:53:23.360Z,7.90
2022-08-23T05:54:07.761Z,7.60
2022-08-23T05:54:49.572Z,7.35
2022-08-23T05:55:34.940Z,8.07
2022-08-23T05:56:21.595Z,7.75
2022-08-23T05:57:03.565Z,8.10
2022-08-23T05:57:45.401Z,8.30
2022-08-23T05:58:27.168Z,8.75
2022-08-23T05:59:12.830Z,8.55
2022-08-23T05:59:54.642Z,8.93
2022-08-23T06:00:37.917Z,9.55
2022-08-23T06:01:22.875Z,10.02
2022-08-23T06:02:04.734Z,9.10
2022-08-23T06:02:47.240Z,8.40
2022-08-23T06:03:28.945Z,7.55
2022-08-23T06:04:12.470Z,7.78
2022-08-23T06:04:57.260Z,8.07
2022-08-23T06:05:41.731Z,8.43
2022-08-23T06:06:23.426Z,9.30
2022-08-23T06:07:19.316Z,9.40
2022-08-23T06:08:01.196Z,10.07
2022-08-23T06:08:46.310Z,10.57
2022-08-23T06:09:28.066Z,11.95
2022-08-23T06:10:16.126Z,12.15
2022-08-23T06:11:08.300Z,12.80
2022-08-23T06:11:50.382Z,11.05
2022-08-23T06:12:33.629Z,11.80
2022-08-23T06:13:15.553Z,11.50
2022-08-23T06:14:02.638Z,11.70
2022-08-23T06:14:44.387Z,10.75
2022-08-23T06:15:26.240Z,11.23
2022-08-23T06:16:14.861Z,10.18
2022-08-23T06:16:57.142Z,10.38
2022-08-23T06:17:38.837Z,11.05
2022-08-23T06:18:20.846Z,11.60
2022-08-23T06:19:04.394Z,11.63
2022-08-23T06:19:46.069Z,11.55
2022-08-23T06:20:27.969Z,11.20
2022-08-23T06:21:12.035Z,9.73
2022-08-23T06:21:53.797Z,9.50
2022-08-23T06:22:35.518Z,9.43
2022-08-23T06:23:17.220Z,8.70
2022-08-23T06:23:59.055Z,9.48
2022-08-23T06:24:40.967Z,9.82
2022-08-23T06:25:22.728Z,9.20
2022-08-23T06:26:12.514Z,8.73
2022-08-23T06:26:54.286Z,8.38
2022-08-23T06:27:36.037Z,9.05
2022-08-23T06:28:17.802Z,8.52
2022-08-23T06:29:04.215Z,8.30
2022-08-23T06:29:46.142Z,8.20
2022-08-23T06:30:28.049Z,7.75
2022-08-23T06:31:10.958Z,8.07
2022-08-23T06:31:53.093Z,7.47
2022-08-23T06:32:35.170Z,7.00
2022-08-23T06:33:17.506Z,6.93
2022-08-23T06:33:59.323Z,7.40
2022-08-23T06:34:41.053Z,7.70
2022-08-23T06:35:37.735Z,7.53
2022-08-23T06:36:21.928Z,7.20
2022-08-23T06:37:10.193Z,7.22
2022-08-23T06:37:51.863Z,7.07
2022-08-23T06:38:34.721Z,6.85
2022-08-23T06:39:17.491Z,6.85
2022-08-23T06:39:59.473Z,6.50
2022-08-23T06:40:41.203Z,7.35
2022-08-23T06:41:22.920Z,7.13
2022-08-23T06:42:37.710Z,6.43
2022-08-23T06:43:15.490Z,6.60
2022-08-23T06:43:57.186Z,6.65
2022-08-23T06:44:39.031Z,6.45
2022-08-23T06:45:33.769Z,6.88
2022-08-23T06:46:20.180Z,7.25
2022-08-23T06:47:07.363Z,6.60
2022-08-23T06:47:49.152Z,7.00
2022-08-23T06:48:31.038Z,6.45
2022-08-23T06:49:13.490Z,6.90
2022-08-23T06:49:58.292Z,7.10
2022-08-23T06:50:41.937Z,7.15
2022-08-23T06:51:33.325Z,6.57
2022-08-23T06:52:15.653Z,6.65
2022-08-23T06:52:58.137Z,6.82
2022-08-23T06:53:40.067Z,6.40
2022-08-23T06:54:26.746Z,6.38
2022-08-23T06:55:13.513Z,6.35
2022-08-23T06:55:55.550Z,6.38
2022-08-23T06:56:38.672Z,6.65
2022-08-23T06:57:20.555Z,5.85
2022-08-23T06:58:03.357Z,6.25
2022-08-23T06:58:45.129Z,6.22
2022-08-23T06:59:27.664Z,6.35
2022-08-23T07:00:11.340Z,6.68
2022-08-23T07:00:56.858Z,6.63
2022-08-23T07:01:58.423Z,6.30
2022-08-23T07:02:40.240Z,6.40
2022-08-23T07:03:21.955Z,6.30
2022-08-23T07:04:06.840Z,6.45
2022-08-23T07:04:54.004Z,6.90
2022-08-23T07:05:35.994Z,6.75
2022-08-23T07:06:17.695Z,6.50
2022-08-23T07:07:01.855Z,6.80
2022-08-23T07:07:44.388Z,6.10
2022-08-23T07:08:26.438Z,6.55
2022-08-23T07:09:08.453Z,6.40
2022-08-23T07:09:50.245Z,6.20
2022-08-23T07:10:31.986Z,6.20
2022-08-23T07:11:13.679Z,6.90
2022-08-23T07:11:56.108Z,6.65
2022-08-23T07:12:45.036Z,6.93
2022-08-23T07:13:26.869Z,7.00
2022-08-23T07:14:12.437Z,6.70
2022-08-23T07:14:55.855Z,6.85
2022-08-23T07:15:37.551Z,7.00
2022-08-23T07:16:20.141Z,6.43
2022-08-23T07:17:03.529Z,5.90
2022-08-23T07:17:45.803Z,6.43
2022-08-23T07:18:27.591Z,6.40
2022-08-23T07:19:09.433Z,6.18
2022-08-23T07:19:51.777Z,6.50
2022-08-23T07:20:33.511Z,5.70
2022-08-23T07:21:15.542Z,5.57
2022-08-23T07:22:01.213Z,5.30
2022-08-23T07:22:44.466Z,5.30
2022-08-23T07:23:27.249Z,5.20
2022-08-23T07:24:09.275Z,5.70
2022-08-23T07:24:50.986Z,5.88
2022-08-23T07:25:32.685Z,5.78
2022-08-23T07:26:17.109Z,6.10
2022-08-23T07:27:00.579Z,6.07
2022-08-23T07:27:42.386Z,5.47
2022-08-23T07:28:25.076Z,5.40
2022-08-23T07:29:09.307Z,6.10
2022-08-23T07:29:51.096Z,5.13
2022-08-23T07:30:33.000Z,4.90
2022-08-23T07:31:16.757Z,5.90
2022-08-23T07:31:58.950Z,6.47
2022-08-23T07:32:40.796Z,6.00
2022-08-23T07:33:22.723Z,5.70
2022-08-23T07:34:06.313Z,5.63
2022-08-23T07:34:48.039Z,5.70
2022-08-23T07:35:30.009Z,5.63
2022-08-23T07:36:16.425Z,5.70
2022-08-23T07:36:58.124Z,6.35
2022-08-23T07:37:40.079Z,5.97
2022-08-23T07:38:22.115Z,6.40
2022-08-23T07:39:06.446Z,6.43
2022-08-23T07:39:48.273Z,7.03
2022-08-23T07:40:30.112Z,6.55
2022-08-23T07:41:17.920Z,6.80
2022-08-23T07:42:01.217Z,7.00
2022-08-23T07:42:57.832Z,6.68
2022-08-23T07:43:40.062Z,6.60
2022-08-23T07:44:27.052Z,6.03
2022-08-23T07:45:10.148Z,5.93
2022-08-23T07:45:51.947Z,6.13
2022-08-23T07:46:34.026Z,6.90
2022-08-23T07:47:16.346Z,6.20
2022-08-23T07:48:00.211Z,6.68
2022-08-23T07:48:53.846Z,6.28
2022-08-23T07:49:36.259Z,6.30
2022-08-23T07:50:18.117Z,6.70
2022-08-23T07:51:04.212Z,6.30
2022-08-23T07:51:47.997Z,6.40
2022-08-23T07:52:29.823Z,6.93
2022-08-23T07:53:11.548Z,6.90
2022-08-23T07:53:53.261Z,6.65
2022-08-23T07:54:35.028Z,7.00
2022-08-23T07:55:16.875Z,6.30
2022-08-23T07:55:59.173Z,6.95
2022-08-23T07:56:45.260Z,6.40
2022-08-23T07:57:28.059Z,6.28
2022-08-23T07:58:09.802Z,6.40
2022-08-23T07:58:51.652Z,5.85
2022-08-23T07:59:34.706Z,6.35
2022-08-23T08:00:16.857Z,6.90
2022-08-23T08:01:11.957Z,6.38
2022-08-23T08:01:53.724Z,6.22
2022-08-23T08:02:35.538Z,6.40
2022-08-23T08:03:17.455Z,5.78
2022-08-23T08:04:01.996Z,5.65
2022-08-23T08:04:44.030Z,6.07
2022-08-23T08:05:25.786Z,6.50
2022-08-23T08:06:09.843Z,5.63
2022-08-23T08:07:16.800Z,5.80
2022-08-23T08:07:53.761Z,6.18
2022-08-23T08:08:35.665Z,5.90
2022-08-23T08:09:19.270Z,6.20
2022-08-23T08:10:01.457Z,6.13
2022-08-23T08:10:44.060Z,5.90
2022-08-23T08:11:33.690Z,5.45
2022-08-23T08:12:16.582Z,5.53
2022-08-23T08:12:58.785Z,5.75
2022-08-23T08:13:42.342Z,5.70
2022-08-23T08:14:24.131Z,6.38
2022-08-23T08:15:06.302Z,6.00
2022-08-23T08:15:48.134Z,5.57
2022-08-23T08:16:37.057Z,5.43
2022-08-23T08:17:19.126Z,5.90
2022-08-23T08:18:02.432Z,5.68
2022-08-23T08:18:46.818Z,5.03
2022-08-23T08:19:28.553Z,6.10
2022-08-23T08:20:10.720Z,5.45
2022-08-23T08:20:52.409Z,5.30
2022-08-23T08:21:35.455Z,4.60
2022-08-23T08:22:17.204Z,4.80
2022-08-23T08:23:00.497Z,5.10
2022-08-23T08:23:42.450Z,5.60
2022-08-23T08:24:24.229Z,5.30
2022-08-23T08:25:06.484Z,5.13
2022-08-23T08:25:48.443Z,5.18
2022-08-23T08:26:30.214Z,5.40
2022-08-23T08:27:12.163Z,5.47
2022-08-23T08:27:53.926Z,5.10
2022-08-23T08:28:36.489Z,4.80
2022-08-23T08:29:18.595Z,5.03
2022-08-23T08:30:00.463Z,4.68
2022-08-23T08:30:42.273Z,5.25
2022-08-23T08:31:25.554Z,5.10
2022-08-23T08:32:08.154Z,4.25
2022-08-23T08:32:56.359Z,4.63
2022-08-23T08:33:38.727Z,4.40
2022-08-23T08:34:20.632Z,5.22
2022-08-23T08:35:02.918Z,4.78
2022-08-23T08:35:48.507Z,4.68
2022-08-23T08:36:43.133Z,4.72
2022-08-23T08:37:24.912Z,4.80
2022-08-23T08:38:06.600Z,4.53
2022-08-23T08:38:51.776Z,4.10
2022-08-23T08:39:35.169Z,4.35
2022-08-23T08:40:31.579Z,4.60
2022-08-23T08:41:24.966Z,5.00
2022-08-23T08:42:12.734Z,4.78
2022-08-23T08:43:11.835Z,4.30
2022-08-23T08:44:24.012Z,4.68
2022-08-23T08:45:11.417Z,4.90
2022-08-23T08:46:19.319Z,5.15
2022-08-23T08:47:06.849Z,4.95
2022-08-23T08:48:10.135Z,4.75
2022-08-23T08:49:00.238Z,4.40
2022-08-23T08:49:58.326Z,4.70
2022-08-23T08:50:54.331Z,4.75
2022-08-23T08:51:48.954Z,4.10
2022-08-23T08:52:36.772Z,4.13
2022-08-23T08:53:25.757Z,4.30
2022-08-23T08:54:12.429Z,4.60
2022-08-23T08:55:18.034Z,4.22
2022-08-23T08:56:03.596Z,4.60
2022-08-23T08:56:51.325Z,4.43
2022-08-23T08:57:43.478Z,4.05
2022-08-23T08:58:36.600Z,4.80
2022-08-23T08:59:26.005Z,4.43
2022-08-23T09:00:15.434Z,4.53
2022-08-23T09:00:58.186Z,4.40
2022-08-23T09:01:40.049Z,4.85
2022-08-23T09:02:31.817Z,4.30
2022-08-23T09:03:20.510Z,4.70
2022-08-23T09:04:03.353Z,5.22
2022-08-23T09:04:46.464Z,4.70
2022-08-23T09:05:34.330Z,4.90
2022-08-23T09:06:35.978Z,4.40
2022-08-23T09:07:32.627Z,5.40
2022-08-23T09:08:29.377Z,5.20
2022-08-23T09:09:19.826Z,6.07
2022-08-23T09:10:16.643Z,4.80
2022-08-23T09:11:22.069Z,5.13
2022-08-23T09:12:46.479Z,4.65
2022-08-23T09:13:37.542Z,5.30
2022-08-23T09:14:56.881Z,4.70
2022-08-23T09:16:02.808Z,5.50
2022-08-23T09:16:44.866Z,5.50
2022-08-23T09:17:56.261Z,5.40
2022-08-23T09:18:38.189Z,4.50
2022-08-23T09:19:22.286Z,4.50
2022-08-23T09:20:06.399Z,4.30
2022-08-23T09:20:53.034Z,4.00
2022-08-23T09:21:57.013Z,3.80
2022-08-23T09:22:43.037Z,3.90
2022-08-23T09:23:45.449Z,4.20
2022-08-23T09:24:27.745Z,4.28
2022-08-23T09:25:14.343Z,3.92
2022-08-23T09:26:03.817Z,3.80
2022-08-23T09:26:45.810Z,4.00
2022-08-23T09:27:27.872Z,4.60
2022-08-23T09:28:16.380Z,4.70
2022-08-23T09:29:19.707Z,4.10
2022-08-23T09:30:01.783Z,3.78
2022-08-23T09:30:55.005Z,4.30
2022-08-23T09:31:52.483Z,3.70
2022-08-23T09:32:38.150Z,4.00
2022-08-23T09:33:36.477Z,4.30
2022-08-23T09:34:30.450Z,4.10
2022-08-23T09:35:21.778Z,3.78
2022-08-23T09:36:13.350Z,3.97
2022-08-23T09:37:11.480Z,3.88
2022-08-23T09:38:18.749Z,4.18
2022-08-23T09:39:30.835Z,4.18
2022-08-23T09:40:16.465Z,4.53
2022-08-23T09:40:58.554Z,3.80
2022-08-23T09:41:42.062Z,4.00
2022-08-23T09:42:37.101Z,4.20
2022-08-23T09:43:26.246Z,4.32
2022-08-23T09:44:13.351Z,3.90
2022-08-23T09:44:56.352Z,4.00
2022-08-23T09:45:54.708Z,3.60
2022-08-23T09:46:41.793Z,3.40
2022-08-23T09:47:33.619Z,3.30
2022-08-23T09:48:34.963Z,2.90
2022-08-23T09:49:27.011Z,3.03
2022-08-23T09:50:27.390Z,3.70
2022-08-23T09:51:22.619Z,3.20
2022-08-23T09:52:26.269Z,3.35
2022-08-23T09:53:11.045Z,2.80
2022-08-23T09:54:12.992Z,2.70
2022-08-23T09:55:03.245Z,2.90
2022-08-23T09:55:51.886Z,3.35
2022-08-23T09:56:41.534Z,3.88
2022-08-23T09:57:27.820Z,3.05
2022-08-23T09:58:25.321Z,2.85
2022-08-23T09:59:22.382Z,3.40
2022-08-23T10:00:26.214Z,3.20
2022-08-23T10:01:33.374Z,2.70